createdAt,value
2022-12-23T00:02:20.592Z,2.28
2022-12-23T00:04:47.639Z,2.26
2022-12-23T00:07:14.603Z,1.98
2022-12-23T00:09:41.593Z,2.06
2022-12-23T00:12:27.232Z,2.10
2022-12-23T00:15:06.392Z,2.22
2022-12-23T00:17:45.203Z,2.02
2022-12-23T00:20:15.270Z,2.24
2022-12-23T00:23:00.613Z,2.17
2022-12-23T00:25:44.671Z,2.06
2022-12-23T00:28:20.733Z,1.94
2022-12-23T00:30:53.555Z,2.06
2022-12-23T00:33:23.719Z,1.91
2022-12-23T00:35:51.563Z,2.08
2022-12-23T00:38:42.581Z,1.73
2022-12-23T00:41:32.161Z,1.97
2022-12-23T00:43:59.162Z,1.79
2022-12-23T00:46:26.211Z,1.74
2022-12-23T00:49:12.010Z,1.76
2022-12-23T00:51:38.981Z,1.87
2022-12-23T00:54:06.700Z,1.91
2022-12-23T00:56:33.656Z,1.89
2022-12-23T00:59:00.720Z,1.88
2022-12-23T01:01:46.505Z,1.97
2022-12-23T01:04:34.139Z,1.55
2022-12-23T01:07:01.507Z,1.92
2022-12-23T01:09:28.738Z,1.71
2022-12-23T01:11:55.568Z,1.83
2022-12-23T01:14:22.611Z,1.88
2022-12-23T01:16:50.069Z,1.90
2022-12-23T01:19:17.559Z,1.93
2022-12-23T01:21:44.563Z,1.87
2022-12-23T01:24:11.656Z,1.75
2022-12-23T01:26:38.612Z,1.63
2022-12-23T01:29:05.559Z,1.63
2022-12-23T01:31:32.526Z,1.72
2022-12-23T01:33:59.513Z,1.72
2022-12-23T01:36:26.491Z,1.76
2022-12-23T01:38:55.289Z,1.77
2022-12-23T01:41:49.081Z,1.88
2022-12-23T01:44:57.594Z,1.92
2022-12-23T01:47:53.545Z,1.72
2022-12-23T01:50:59.581Z,1.76
2022-12-23T01:53:28.314Z,1.54
2022-12-23T01:56:29.643Z,1.66
2022-12-23T01:59:04.625Z,1.59
2022-12-23T02:01:50.410Z,1.59
2022-12-23T02:04:24.368Z,1.67
2022-12-23T02:07:10.251Z,1.71
2022-12-23T02:09:39.626Z,1.45
2022-12-23T02:12:35.173Z,1.80
2022-12-23T02:15:48.696Z,1.77
2022-12-23T02:18:21.389Z,1.76
2022-12-23T02:20:54.051Z,1.80
2022-12-23T02:23:36.137Z,1.52
2022-12-23T02:26:30.339Z,1.73
2022-12-23T02:29:28.861Z,1.75
2022-12-23T02:32:12.252Z,1.56
2022-12-23T02:34:54.647Z,1.77
2022-12-23T02:37:30.256Z,1.76
2022-12-23T02:40:05.539Z,1.81
2022-12-23T02:42:50.811Z,1.80
2022-12-23T02:45:25.922Z,1.67
2022-12-23T02:47:59.474Z,1.73
2022-12-23T02:50:33.019Z,1.81
2022-12-23T02:53:06.672Z,1.81
2022-12-23T02:55:37.017Z,1.80
2022-12-23T02:58:09.214Z,1.77
2022-12-23T03:00:38.599Z,1.87
2022-12-23T03:03:05.815Z,1.98
2022-12-23T03:05:43.117Z,1.91
2022-12-23T03:08:18.762Z,1.92
2022-12-23T03:11:02.099Z,1.83
2022-12-23T03:13:46.450Z,1.93
2022-12-23T03:16:47.208Z,1.95
2022-12-23T03:19:14.399Z,1.93
2022-12-23T03:22:25.904Z,1.93
2022-12-23T03:24:55.760Z,1.93
2022-12-23T03:27:30.969Z,1.94
2022-12-23T03:30:04.076Z,1.84
2022-12-23T03:32:37.252Z,1.50
2022-12-23T03:35:08.395Z,1.99
2022-12-23T03:37:39.137Z,1.64
2022-12-23T03:40:35.100Z,1.78
2022-12-23T03:43:08.139Z,1.87
2022-12-23T03:45:45.368Z,1.68
2022-12-23T03:48:18.507Z,1.63
2022-12-23T03:50:49.144Z,1.59
2022-12-23T03:53:25.598Z,1.66
2022-12-23T03:55:56.953Z,1.65
2022-12-23T03:58:43.323Z,1.86
2022-12-23T04:01:25.447Z,1.87
2022-12-23T04:04:11.152Z,1.89
2022-12-23T04:06:53.277Z,1.67
2022-12-23T04:09:22.555Z,1.55
2022-12-23T04:11:49.840Z,1.77
2022-12-23T04:14:21.209Z,1.66
2022-12-23T04:16:53.017Z,1.70
2022-12-23T04:19:19.970Z,1.89
2022-12-23T04:21:46.943Z,1.84
2022-12-23T04:24:14.360Z,1.84
2022-12-23T04:26:41.331Z,1.75
2022-12-23T04:29:08.207Z,1.60
2022-12-23T04:31:35.205Z,1.51
2022-12-23T04:34:02.174Z,1.72
2022-12-23T04:36:29.020Z,1.59
2022-12-23T04:38:55.971Z,1.62
2022-12-23T04:41:24.249Z,1.67
2022-12-23T04:43:53.289Z,1.69
2022-12-23T04:46:20.694Z,1.52
2022-12-23T04:48:47.776Z,1.70
2022-12-23T04:51:15.077Z,1.71
2022-12-23T04:53:41.972Z,1.65
2022-12-23T04:56:08.950Z,1.66
2022-12-23T04:58:35.919Z,1.52
2022-12-23T05:01:06.203Z,1.73
2022-12-23T05:03:33.341Z,1.76
2022-12-23T05:06:00.655Z,1.72
2022-12-23T05:08:28.180Z,1.70
2022-12-23T05:10:55.359Z,1.63
2022-12-23T05:13:22.737Z,1.70
2022-12-23T05:15:51.271Z,1.67
2022-12-23T05:18:18.348Z,1.68
2022-12-23T05:20:45.837Z,1.50
2022-12-23T05:23:12.739Z,1.65
2022-12-23T05:25:40.121Z,1.21
2022-12-23T05:28:10.584Z,1.72
2022-12-23T05:30:37.622Z,1.64
2022-12-23T05:33:04.649Z,1.65
2022-12-23T05:35:31.654Z,1.45
2022-12-23T05:37:58.764Z,1.36
2022-12-23T05:40:30.027Z,1.63
2022-12-23T05:42:59.600Z,1.48
2022-12-23T05:45:26.589Z,1.65
2022-12-23T05:47:53.648Z,1.40
2022-12-23T05:50:20.518Z,1.30
2022-12-23T05:52:48.827Z,1.63
2022-12-23T05:55:15.854Z,1.46
2022-12-23T05:57:42.817Z,1.48
2022-12-23T06:00:10.255Z,1.68
2022-12-23T06:02:41.245Z,1.64
2022-12-23T06:05:09.193Z,1.53
2022-12-23T06:07:36.475Z,1.79
2022-12-23T06:10:05.276Z,1.90
2022-12-23T06:12:32.376Z,1.89
2022-12-23T06:14:59.310Z,1.66
2022-12-23T06:17:26.358Z,1.89
2022-12-23T06:19:53.273Z,1.91
2022-12-23T06:22:23.764Z,1.81
2022-12-23T06:24:50.707Z,1.92
2022-12-23T06:27:18.098Z,2.07
2022-12-23T06:29:44.997Z,1.83
2022-12-23T06:32:12.371Z,2.03
2022-12-23T06:34:39.317Z,2.11
2022-12-23T06:37:06.332Z,1.98
2022-12-23T06:39:33.284Z,2.24
2022-12-23T06:42:00.308Z,2.13
2022-12-23T06:44:27.271Z,2.33
2022-12-23T06:46:54.206Z,2.48
2022-12-23T06:49:21.193Z,2.35
2022-12-23T06:51:48.180Z,2.36
2022-12-23T06:54:15.253Z,2.28
2022-12-23T06:56:42.293Z,1.83
2022-12-23T06:59:09.354Z,2.48
2022-12-23T07:01:36.448Z,2.36
2022-12-23T07:04:03.653Z,2.17
2022-12-23T07:06:30.698Z,2.70
2022-12-23T07:08:57.716Z,2.59
2022-12-23T07:11:24.681Z,2.72
2022-12-23T07:13:51.615Z,2.89
2022-12-23T07:16:18.651Z,2.25
2022-12-23T07:18:45.716Z,2.71
2022-12-23T07:21:21.192Z,3.04
2022-12-23T07:23:51.734Z,3.10
2022-12-23T07:26:18.652Z,3.13
2022-12-23T07:28:47.964Z,3.12
2022-12-23T07:31:16.051Z,3.22
2022-12-23T07:33:43.214Z,3.20
2022-12-23T07:36:10.302Z,3.19
2022-12-23T07:38:37.352Z,3.33
2022-12-23T07:41:04.511Z,3.28
2022-12-23T07:43:31.577Z,3.05
2022-12-23T07:46:00.684Z,3.35
2022-12-23T07:48:28.151Z,3.30
2022-12-23T07:51:02.574Z,3.58
2022-12-23T07:53:29.958Z,3.42
2022-12-23T07:55:57.265Z,3.58
2022-12-23T07:58:24.818Z,3.62
2022-12-23T08:00:51.916Z,3.92
2022-12-23T08:03:21.552Z,4.05
2022-12-23T08:05:48.600Z,4.21
2022-12-23T08:08:15.550Z,4.18
2022-12-23T08:10:48.113Z,4.44
2022-12-23T08:13:15.725Z,4.54
2022-12-23T08:15:42.704Z,4.63
2022-12-23T08:18:09.643Z,4.67
2022-12-23T08:20:36.561Z,4.82
2022-12-23T08:23:03.550Z,4.89
2022-12-23T08:25:30.483Z,4.89
2022-12-23T08:27:57.399Z,5.01
2022-12-23T08:30:24.333Z,5.06
2022-12-23T08:32:51.368Z,5.27
2022-12-23T08:35:18.413Z,5.24
2022-12-23T08:37:45.434Z,5.10
2022-12-23T08:40:12.540Z,5.09
2022-12-23T08:42:39.535Z,5.35
2022-12-23T08:45:06.915Z,4.95
2022-12-23T08:47:34.252Z,5.34
2022-12-23T08:50:01.195Z,5.38
2022-12-23T08:52:28.314Z,5.41
2022-12-23T08:54:55.320Z,5.32
2022-12-23T08:57:22.300Z,5.26
2022-12-23T08:59:49.314Z,5.30
2022-12-23T09:02:16.804Z,5.36
2022-12-23T09:04:43.921Z,5.25
2022-12-23T09:07:10.911Z,5.70
2022-12-23T09:09:38.484Z,5.71
2022-12-23T09:12:05.574Z,5.68
2022-12-23T09:14:32.538Z,5.74
2022-12-23T09:16:59.594Z,5.97
2022-12-23T09:19:26.544Z,6.04
2022-12-23T09:21:53.491Z,6.13
2022-12-23T09:24:20.394Z,6.01
2022-12-23T09:26:47.368Z,6.02
2022-12-23T09:29:14.235Z,6.14
2022-12-23T09:31:41.394Z,6.17
2022-12-23T09:34:11.172Z,6.56
2022-12-23T09:36:38.053Z,6.67
2022-12-23T09:39:05.038Z,6.51
2022-12-23T09:42:07.344Z,6.65
2022-12-23T09:44:46.338Z,6.74
2022-12-23T09:47:17.435Z,6.87
2022-12-23T09:49:52.208Z,6.97
2022-12-23T09:52:28.736Z,7.02
2022-12-23T09:54:56.042Z,7.02
2022-12-23T09:57:37.136Z,7.05
2022-12-23T10:00:09.785Z,7.12
2022-12-23T10:03:14.571Z,7.07
2022-12-23T10:06:08.533Z,7.26
2022-12-23T10:08:41.045Z,7.21
2022-12-23T10:11:13.838Z,7.32
2022-12-23T10:14:23.758Z,7.34
2022-12-23T10:17:07.647Z,7.39
2022-12-23T10:19:42.154Z,7.55
2022-12-23T10:22:21.102Z,7.59
2022-12-23T10:24:49.102Z,7.68
2022-12-23T10:27:40.470Z,7.57
2022-12-23T10:30:34.272Z,7.82
2022-12-23T10:33:02.696Z,7.91
2022-12-23T10:36:07.314Z,7.97
2022-12-23T10:38:41.369Z,7.81
2022-12-23T10:41:30.622Z,7.89
2022-12-23T10:44:13.288Z,7.90
2022-12-23T10:46:52.717Z,7.70
2022-12-23T10:49:38.010Z,8.01
2022-12-23T10:52:25.078Z,8.16
2022-12-23T10:54:52.012Z,8.18
2022-12-23T10:57:20.672Z,8.06
2022-12-23T10:59:47.844Z,8.16
2022-12-23T11:02:15.081Z,8.24
2022-12-23T11:04:47.972Z,8.13
2022-12-23T11:07:49.641Z,8.11
2022-12-23T11:10:20.938Z,8.35
2022-12-23T11:12:51.007Z,8.14
2022-12-23T11:15:39.256Z,8.34
2022-12-23T11:18:12.485Z,8.32
2022-12-23T11:20:44.450Z,8.42
2022-12-23T11:23:25.695Z,8.44
2022-12-23T11:26:20.288Z,8.38
2022-12-23T11:28:53.439Z,8.24
2022-12-23T11:31:28.800Z,8.36
2022-12-23T11:33:57.957Z,8.32
2022-12-23T11:36:28.189Z,8.25
2022-12-23T11:39:14.424Z,8.48
2022-12-23T11:41:51.083Z,8.31
2022-12-23T11:44:24.175Z,8.41
2022-12-23T11:46:51.405Z,8.19
2022-12-23T11:49:27.491Z,8.44
2022-12-23T11:52:01.909Z,8.45
2022-12-23T11:54:29.521Z,8.39
2022-12-23T11:56:57.332Z,8.16
2022-12-23T11:59:42.870Z,8.21
2022-12-23T12:02:32.831Z,8.43
2022-12-23T12:05:05.498Z,8.27
2022-12-23T12:07:33.438Z,8.49
2022-12-23T12:10:02.144Z,8.39
2022-12-23T12:12:30.492Z,8.35
2022-12-23T12:14:59.962Z,8.04
2022-12-23T12:17:42.498Z,8.44
2022-12-23T12:20:24.585Z,8.39
2022-12-23T12:22:54.612Z,8.33
2022-12-23T12:25:43.256Z,8.16
2022-12-23T12:28:22.641Z,8.31
2022-12-23T12:31:15.641Z,8.19
2022-12-23T12:33:56.351Z,8.28
2022-12-23T12:36:39.098Z,8.29
2022-12-23T12:39:14.065Z,8.22
2022-12-23T12:41:51.128Z,7.88
2022-12-23T12:44:51.593Z,7.82
2022-12-23T12:47:52.192Z,8.08
2022-12-23T12:50:27.983Z,8.03
2022-12-23T12:53:00.433Z,7.96
2022-12-23T12:55:36.511Z,7.73
2022-12-23T12:58:03.909Z,7.70
2022-12-23T13:00:49.273Z,7.69
2022-12-23T13:03:48.035Z,7.70
2022-12-23T13:06:40.470Z,7.33
2022-12-23T13:09:37.414Z,7.49
2022-12-23T13:12:19.356Z,7.47
2022-12-23T13:15:18.557Z,7.41
2022-12-23T13:18:07.233Z,7.28
2022-12-23T13:20:42.549Z,7.04
2022-12-23T13:26:40.492Z,7.14
2022-12-23T13:29:25.551Z,6.92
2022-12-23T13:32:19.206Z,6.87
2022-12-23T13:35:00.115Z,6.92
2022-12-23T13:37:50.296Z,6.92
2022-12-23T13:40:41.856Z,7.02
2022-12-23T13:43:16.187Z,6.67
2022-12-23T13:45:46.421Z,6.98
2022-12-23T13:48:29.432Z,6.90
2022-12-23T13:51:02.422Z,6.92
2022-12-23T13:53:47.572Z,6.83
2022-12-23T13:56:24.044Z,6.88
2022-12-23T13:58:51.870Z,6.88
2022-12-23T14:01:31.603Z,6.74
2022-12-23T14:04:35.838Z,6.79
2022-12-23T14:07:16.768Z,6.86
2022-12-23T14:09:51.396Z,6.55
2022-12-23T14:12:36.841Z,6.91
2022-12-23T14:15:22.221Z,6.83
2022-12-23T14:17:49.149Z,6.88
2022-12-23T14:20:29.483Z,6.51
2022-12-23T14:23:05.697Z,6.78
2022-12-23T14:25:46.302Z,6.63
2022-12-23T14:28:23.833Z,6.66
2022-12-23T14:30:51.137Z,6.60
2022-12-23T14:33:30.386Z,6.63
2022-12-23T14:36:15.113Z,6.50
2022-12-23T14:38:42.304Z,6.46
2022-12-23T14:41:37.018Z,6.54
2022-12-23T14:44:04.113Z,6.14
2022-12-23T14:46:37.115Z,6.65
2022-12-23T14:49:36.836Z,6.65
2022-12-23T14:51:51.247Z,6.43
2022-12-23T14:54:37.513Z,6.40
2022-12-23T14:57:13.815Z,6.51
2022-12-23T14:59:57.170Z,6.81
2022-12-23T15:02:35.442Z,6.66
2022-12-23T15:05:03.033Z,6.54
2022-12-23T15:07:35.491Z,6.54
2022-12-23T15:10:06.761Z,6.64
2022-12-23T15:12:40.160Z,6.54
2022-12-23T15:15:13.582Z,6.47
2022-12-23T15:17:40.723Z,6.47
2022-12-23T15:20:11.266Z,6.75
2022-12-23T15:22:40.086Z,6.17
2022-12-23T15:25:19.612Z,5.89
2022-12-23T15:27:46.769Z,6.60
2022-12-23T15:30:15.181Z,6.52
2022-12-23T15:32:44.537Z,6.73
2022-12-23T15:35:22.449Z,6.58
2022-12-23T15:37:50.851Z,6.65
2022-12-23T15:40:24.014Z,6.82
2022-12-23T15:42:51.142Z,6.81
2022-12-23T15:45:39.918Z,6.79
2022-12-23T15:48:22.850Z,6.69
2022-12-23T15:50:52.926Z,5.92
2022-12-23T15:53:20.712Z,6.71
2022-12-23T15:55:49.253Z,6.52
2022-12-23T15:58:25.406Z,6.80
2022-12-23T16:00:55.736Z,6.55
2022-12-23T16:03:34.593Z,6.89
2022-12-23T16:06:07.583Z,6.93
2022-12-23T16:08:34.673Z,6.87
2022-12-23T16:11:13.434Z,6.74
2022-12-23T16:13:47.301Z,6.37
2022-12-23T16:16:34.451Z,6.50
2022-12-23T16:19:01.658Z,6.60
2022-12-23T16:21:33.745Z,6.86
2022-12-23T16:24:03.134Z,6.91
2022-12-23T16:26:30.187Z,6.46
2022-12-23T16:29:01.137Z,6.81
2022-12-23T16:31:28.403Z,6.85
2022-12-23T16:33:59.458Z,6.90
2022-12-23T16:36:26.365Z,6.91
2022-12-23T16:39:01.157Z,6.93
2022-12-23T16:41:28.051Z,6.81
2022-12-23T16:43:55.055Z,6.90
2022-12-23T16:46:23.692Z,6.80
2022-12-23T16:48:55.435Z,6.66
2022-12-23T16:51:23.642Z,7.01
2022-12-23T16:53:52.673Z,6.66
2022-12-23T16:56:20.549Z,6.24
2022-12-23T16:58:47.697Z,6.43
2022-12-23T17:01:18.177Z,6.87
2022-12-23T17:03:45.250Z,6.93
2022-12-23T17:06:17.109Z,6.60
2022-12-23T17:08:44.138Z,6.82
2022-12-23T17:11:25.985Z,6.69
2022-12-23T17:13:59.618Z,6.68
2022-12-23T17:16:30.386Z,6.65
2022-12-23T17:18:57.448Z,6.65
2022-12-23T17:21:30.751Z,6.83
2022-12-23T17:24:10.449Z,6.80
2022-12-23T17:26:37.546Z,6.67
2022-12-23T17:29:05.681Z,6.44
2022-12-23T17:31:34.430Z,6.72
2022-12-23T17:34:02.321Z,6.60
2022-12-23T17:36:29.878Z,6.64
2022-12-23T17:38:56.999Z,6.60
2022-12-23T17:41:32.388Z,6.46
2022-12-23T17:43:59.956Z,6.46
2022-12-23T17:46:29.081Z,6.07
2022-12-23T17:48:58.622Z,5.93
2022-12-23T17:51:26.903Z,6.33
2022-12-23T17:54:04.745Z,6.14
2022-12-23T17:56:31.755Z,6.46
2022-12-23T17:58:58.823Z,6.22
2022-12-23T18:01:31.439Z,6.52
2022-12-23T18:04:00.224Z,6.20
2022-12-23T18:06:28.875Z,5.96
2022-12-23T18:08:58.925Z,5.97
2022-12-23T18:11:42.008Z,6.36
2022-12-23T18:14:28.060Z,5.97
2022-12-23T18:16:55.292Z,5.99
2022-12-23T18:19:22.315Z,6.02
2022-12-23T18:21:50.592Z,5.91
2022-12-23T18:24:18.440Z,5.99
2022-12-23T18:26:45.492Z,6.16
2022-12-23T18:29:12.548Z,6.14
2022-12-23T18:31:50.931Z,5.99
2022-12-23T18:34:19.911Z,6.05
2022-12-23T18:36:48.479Z,5.80
2022-12-23T18:39:15.728Z,6.01
2022-12-23T18:41:42.757Z,5.89
2022-12-23T18:44:21.201Z,5.66
2022-12-23T18:46:49.131Z,5.86
2022-12-23T18:49:16.212Z,5.80
2022-12-23T18:51:43.254Z,5.81
2022-12-23T18:54:15.100Z,5.82
2022-12-23T18:56:42.811Z,5.74
2022-12-23T18:59:15.777Z,5.78
2022-12-23T19:01:42.874Z,5.82
2022-12-23T19:04:10.018Z,5.40
2022-12-23T19:06:38.157Z,5.38
2022-12-23T19:09:05.672Z,5.74
2022-12-23T19:11:32.705Z,5.47
2022-12-23T19:13:59.645Z,5.56
2022-12-23T19:16:26.682Z,5.48
2022-12-23T19:18:53.605Z,5.47
2022-12-23T19:21:20.776Z,5.26
2022-12-23T19:23:47.841Z,5.18
2022-12-23T19:26:15.377Z,5.58
2022-12-23T19:28:42.678Z,5.55
2022-12-23T19:31:12.071Z,5.62
2022-12-23T19:33:40.001Z,5.60
2022-12-23T19:36:12.192Z,5.35
2022-12-23T19:38:39.265Z,5.10
2022-12-23T19:41:07.595Z,5.43
2022-12-23T19:43:35.695Z,5.20
2022-12-23T19:46:06.261Z,5.40
2022-12-23T19:48:33.900Z,5.42
2022-12-23T19:51:03.792Z,5.09
2022-12-23T19:53:30.829Z,5.08
2022-12-23T19:56:07.374Z,5.20
2022-12-23T19:58:36.214Z,5.36
2022-12-23T20:01:12.165Z,5.48
2022-12-23T20:03:40.498Z,5.40
2022-12-23T20:06:13.182Z,4.99
2022-12-23T20:08:40.811Z,5.40
2022-12-23T20:11:10.060Z,5.31
2022-12-23T20:13:37.525Z,5.34
2022-12-23T20:16:06.094Z,5.37
2022-12-23T20:18:33.319Z,4.94
2022-12-23T20:21:01.281Z,4.96
2022-12-23T20:23:29.687Z,5.10
2022-12-23T20:25:56.861Z,5.03
2022-12-23T20:28:24.017Z,5.28
2022-12-23T20:31:04.650Z,5.28
2022-12-23T20:33:31.679Z,5.25
2022-12-23T20:35:58.700Z,5.29
2022-12-23T20:38:25.815Z,4.99
2022-12-23T20:40:52.702Z,4.89
2022-12-23T20:43:19.676Z,5.11
2022-12-23T20:45:46.627Z,5.09
2022-12-23T20:48:13.542Z,4.79
2022-12-23T20:50:40.953Z,4.88
2022-12-23T20:53:08.210Z,5.03
2022-12-23T20:55:35.208Z,5.07
2022-12-23T20:58:22.475Z,4.88
2022-12-23T21:00:49.859Z,4.83
2022-12-23T21:03:17.179Z,4.99
2022-12-23T21:05:44.477Z,4.73
2022-12-23T21:08:11.643Z,4.43
2022-12-23T21:10:39.643Z,4.20
2022-12-23T21:13:06.579Z,4.65
2022-12-23T21:15:33.583Z,4.66
2022-12-23T21:18:00.554Z,4.98
2022-12-23T21:20:27.617Z,4.72
2022-12-23T21:22:54.739Z,4.49
2022-12-23T21:25:21.735Z,4.68
2022-12-23T21:27:48.697Z,4.70
2022-12-23T21:30:15.794Z,4.65
2022-12-23T21:32:42.763Z,4.45
2022-12-23T21:35:10.205Z,4.61
2022-12-23T21:37:40.302Z,4.49
2022-12-23T21:40:08.125Z,4.61
2022-12-23T21:42:35.217Z,3.91
2022-12-23T21:45:02.253Z,4.02
2022-12-23T21:47:29.463Z,4.08
2022-12-23T21:49:56.575Z,3.54
2022-12-23T21:52:23.803Z,3.58
2022-12-23T21:54:50.920Z,3.17
2022-12-23T21:57:18.141Z,3.71
2022-12-23T21:59:45.147Z,3.75
2022-12-23T22:02:16.693Z,3.32
2022-12-23T22:04:43.848Z,3.36
2022-12-23T22:07:10.841Z,3.70
2022-12-23T22:09:37.868Z,3.71
2022-12-23T22:12:05.378Z,3.73
2022-12-23T22:14:32.437Z,3.62
2022-12-23T22:16:59.371Z,3.47
2022-12-23T22:19:26.289Z,2.99
2022-12-23T22:21:53.256Z,3.30
2022-12-23T22:24:20.297Z,3.51
2022-12-23T22:26:47.399Z,3.50
2022-12-23T22:29:14.428Z,3.36
2022-12-23T22:31:44.398Z,3.64
2022-12-23T22:34:20.383Z,3.56
2022-12-23T22:36:48.356Z,3.47
2022-12-23T22:39:20.993Z,3.50
2022-12-23T22:41:50.639Z,3.46
2022-12-23T22:44:17.792Z,2.79
2022-12-23T22:46:45.029Z,3.46
2022-12-23T22:49:14.013Z,3.49
2022-12-23T22:51:42.496Z,3.44
2022-12-23T22:54:09.997Z,3.49
2022-12-23T22:56:37.007Z,3.49
2022-12-23T22:59:04.979Z,3.57
2022-12-23T23:01:34.923Z,3.39
2022-12-23T23:04:03.711Z,3.61
2022-12-23T23:06:37.784Z,3.64
2022-12-23T23:09:11.853Z,3.68
2022-12-23T23:11:39.247Z,3.42
2022-12-23T23:14:06.233Z,3.54
2022-12-23T23:16:33.692Z,3.67
2022-12-23T23:19:01.900Z,3.66
2022-12-23T23:21:28.909Z,3.66
2022-12-23T23:23:56.079Z,3.63
2022-12-23T23:26:26.924Z,3.44
2022-12-23T23:28:55.740Z,3.29
2022-12-23T23:34:10.549Z,3.35
2022-12-23T23:36:37.503Z,3.72
2022-12-23T23:39:04.539Z,3.70
2022-12-23T23:41:31.882Z,3.71
2022-12-23T23:43:58.885Z,3.55
2022-12-23T23:46:25.930Z,3.74
2022-12-23T23:48:52.937Z,3.73
2022-12-23T23:51:19.887Z,3.58
2022-12-23T23:53:46.848Z,3.78
2022-12-23T23:56:13.968Z,3.64
2022-12-23T23:58:40.936Z,3.80
